Time;durP1;ratioP1;P1;durP2;ratioP2;P2;SDS_P1;SDS_P2;PMS_P1;PMS_P2;Temp;Humidity;BMP_temperature;BMP_pressure;BME280_temperature;BME280_humidity;BME280_pressure;Samples;Min_cycle;Max_cycle;Signal;HPM_P1;HPM_P2
2022/03/07 00:01:56;;;;;;;6.20;5.43;;;1.90;99.90;;;;;;5016270;28;20207;-59
2022/03/07 00:04:22;;;;;;;6.40;5.80;;;1.90;99.90;;;;;;5016167;28;20184;-57
2022/03/07 00:06:48;;;;;;;6.77;5.90;;;2.00;99.90;;;;;;5016293;28;20219;-59
2022/03/07 00:09:15;;;;;;;8.13;6.30;;;1.90;99.90;;;;;;5014807;28;20199;-59
2022/03/07 00:11:42;;;;;;;8.57;6.10;;;2.00;99.90;;;;;;5016256;28;20242;-59
2022/03/07 00:14:08;;;;;;;6.90;5.93;;;1.80;99.90;;;;;;5016075;28;20258;-60
2022/03/07 00:16:33;;;;;;;8.80;6.40;;;1.80;99.90;;;;;;5015906;28;20241;-59
2022/03/07 00:18:59;;;;;;;7.63;5.90;;;1.70;99.90;;;;;;5015900;28;20179;-59
2022/03/07 00:21:26;;;;;;;7.33;6.60;;;1.80;99.90;;;;;;5016072;28;20617;-59
2022/03/07 00:23:52;;;;;;;8.50;6.17;;;1.70;99.90;;;;;;5015981;28;20176;-60
2022/03/07 00:26:18;;;;;;;8.87;6.37;;;1.70;99.90;;;;;;5015757;28;20177;-59
2022/03/07 00:28:45;;;;;;;7.57;6.77;;;1.60;99.90;;;;;;5015618;28;20223;-59
2022/03/07 00:31:10;;;;;;;7.67;6.37;;;1.60;99.90;;;;;;5015741;28;20514;-60
2022/03/07 00:33:36;;;;;;;9.37;6.33;;;1.60;99.90;;;;;;5015597;28;20190;-59
2022/03/07 00:36:03;;;;;;;7.50;6.60;;;1.60;99.90;;;;;;5014543;28;20180;-59
2022/03/07 00:38:29;;;;;;;7.47;6.53;;;1.60;99.90;;;;;;5015728;28;20180;-59
2022/03/07 00:40:55;;;;;;;7.80;6.37;;;1.60;99.90;;;;;;5015627;28;20194;-59
2022/03/07 00:43:22;;;;;;;7.87;6.20;;;1.50;99.90;;;;;;5015290;28;20180;-59
2022/03/07 00:45:48;;;;;;;8.67;6.57;;;1.50;99.90;;;;;;5015483;28;20176;-59
2022/03/07 00:48:15;;;;;;;10.33;7.00;;;1.50;99.90;;;;;;5015224;28;20217;-60
2022/03/07 00:50:42;;;;;;;7.37;6.67;;;1.50;99.90;;;;;;5014216;28;20191;-59
2022/03/07 00:53:19;;;;;;;8.80;6.53;;;1.50;99.90;;;;;;5015486;28;20171;-58
2022/03/07 00:55:45;;;;;;;10.30;7.10;;;1.50;99.90;;;;;;5015345;28;20179;-59
2022/03/07 00:58:11;;;;;;;8.33;6.53;;;1.40;99.90;;;;;;5015246;28;20203;-59
2022/03/07 01:00:38;;;;;;;8.37;6.50;;;1.40;99.90;;;;;;5015205;28;20181;-59
2022/03/07 01:03:06;;;;;;;9.80;6.80;;;1.40;99.90;;;;;;5014932;28;20191;-60
2022/03/07 01:05:32;;;;;;;8.80;7.03;;;1.40;99.90;;;;;;5013973;28;20199;-60
2022/03/07 01:07:58;;;;;;;8.57;6.87;;;1.40;99.90;;;;;;5013964;28;20692;-59
2022/03/07 01:10:24;;;;;;;9.17;6.73;;;1.30;99.90;;;;;;5014806;28;20195;-59
2022/03/07 01:12:50;;;;;;;10.27;7.30;;;1.30;99.90;;;;;;5014854;28;20210;-59
2022/03/07 01:15:16;;;;;;;9.80;6.80;;;1.20;99.90;;;;;;5014844;28;20180;-59
2022/03/07 01:17:42;;;;;;;8.70;6.73;;;1.20;99.90;;;;;;5014971;28;20666;-60
2022/03/07 01:20:10;;;;;;;8.20;6.93;;;1.20;99.90;;;;;;5014334;28;20587;-60
2022/03/07 01:22:36;;;;;;;9.37;7.10;;;1.20;99.90;;;;;;5014647;28;20298;-60
2022/03/07 01:25:04;;;;;;;10.10;6.97;;;1.20;99.90;;;;;;5014639;28;20179;-60
2022/03/07 01:27:30;;;;;;;8.60;6.70;;;1.10;99.90;;;;;;5013318;28;20211;-59
2022/03/07 01:29:56;;;;;;;8.57;7.00;;;1.10;99.90;;;;;;5014460;28;20188;-59
2022/03/07 01:32:21;;;;;;;10.67;7.47;;;1.10;99.90;;;;;;5014671;28;20182;-59
2022/03/07 01:34:47;;;;;;;7.77;6.97;;;1.10;99.90;;;;;;5014684;28;20207;-60
2022/03/07 01:37:13;;;;;;;8.13;6.90;;;1.10;99.90;;;;;;5013399;28;20443;-59
2022/03/07 01:39:38;;;;;;;8.40;7.50;;;1.00;99.90;;;;;;5014717;28;20219;-59
2022/03/07 01:42:05;;;;;;;10.30;6.90;;;1.00;99.90;;;;;;5014422;28;20655;-59
2022/03/07 01:44:31;;;;;;;8.67;7.00;;;1.00;99.90;;;;;;5014266;28;20262;-60
2022/03/07 01:46:57;;;;;;;8.23;6.87;;;0.90;99.90;;;;;;5014316;28;20669;-59
2022/03/07 01:49:23;;;;;;;10.90;7.10;;;0.90;99.90;;;;;;5013154;28;20186;-59
2022/03/07 01:51:50;;;;;;;8.80;7.47;;;0.80;99.90;;;;;;5014315;28;20175;-60
2022/03/07 01:54:17;;;;;;;11.80;7.63;;;0.80;99.90;;;;;;5014224;28;20176;-60
2022/03/07 01:56:45;;;;;;;10.87;7.37;;;0.80;99.90;;;;;;5013920;28;20187;-59
2022/03/07 01:59:16;;;;;;;12.00;8.10;;;0.90;99.90;;;;;;5013441;28;20179;-59
2022/03/07 02:01:42;;;;;;;10.77;7.60;;;0.80;99.90;;;;;;5014267;28;20183;-59
2022/03/07 02:04:08;;;;;;;11.27;7.50;;;0.80;99.90;;;;;;5014159;28;20179;-58
2022/03/07 02:06:35;;;;;;;9.43;7.53;;;0.80;99.90;;;;;;5013954;28;20661;-60
2022/03/07 02:09:01;;;;;;;9.60;7.37;;;0.80;99.90;;;;;;5012596;28;20330;-59
2022/03/07 02:11:27;;;;;;;10.73;7.73;;;0.80;99.90;;;;;;5012675;28;20642;-60
2022/03/07 02:13:53;;;;;;;10.97;7.20;;;0.70;99.90;;;;;;5013822;28;20230;-58
2022/03/07 02:16:20;;;;;;;10.13;7.90;;;0.70;99.90;;;;;;5013964;28;20207;-59
2022/03/07 02:18:46;;;;;;;9.47;7.67;;;0.70;99.90;;;;;;5012077;28;20177;-59
2022/03/07 02:21:17;;;;;;;9.00;7.17;;;0.80;99.90;;;;;;5013541;28;20211;-60
2022/03/07 02:23:44;;;;;;;9.50;7.50;;;0.70;99.90;;;;;;5013615;28;20254;-59
2022/03/07 02:26:15;;;;;;;9.67;8.07;;;0.70;99.90;;;;;;5013630;28;20173;-59
2022/03/07 02:28:45;;;;;;;9.00;7.70;;;0.70;99.90;;;;;;5013792;28;20207;-60
2022/03/07 02:31:15;;;;;;;10.93;7.77;;;0.70;99.90;;;;;;5013272;28;20180;-59
2022/03/07 02:33:41;;;;;;;9.33;7.97;;;0.70;99.90;;;;;;5013461;28;20180;-59
2022/03/07 02:36:06;;;;;;;9.90;8.47;;;0.70;99.90;;;;;;5013780;28;20571;-60
2022/03/07 02:38:32;;;;;;;10.20;7.83;;;0.70;99.90;;;;;;5013299;28;20177;-60
2022/03/07 02:40:58;;;;;;;9.23;7.93;;;0.70;99.90;;;;;;5013701;28;20384;-59
2022/03/07 02:43:24;;;;;;;9.17;7.63;;;0.70;99.90;;;;;;5013824;28;20180;-59
2022/03/07 02:45:51;;;;;;;9.87;8.13;;;0.70;99.90;;;;;;5012211;28;20176;-59
2022/03/07 02:48:18;;;;;;;11.70;9.00;;;0.60;99.90;;;;;;5013370;28;20252;-59
2022/03/07 02:50:45;;;;;;;10.57;8.10;;;0.60;99.90;;;;;;5013500;28;20270;-58
2022/03/07 02:53:11;;;;;;;9.97;8.07;;;0.50;99.90;;;;;;5013292;28;20183;-59
2022/03/07 02:55:37;;;;;;;9.63;7.77;;;0.60;99.90;;;;;;5013509;28;20180;-59
2022/03/07 02:58:03;;;;;;;12.07;8.90;;;0.60;99.90;;;;;;5013762;28;20641;-59
2022/03/07 03:00:29;;;;;;;10.60;8.63;;;0.70;99.90;;;;;;5013384;28;20170;-59
2022/03/07 03:02:55;;;;;;;15.10;9.17;;;0.60;99.90;;;;;;5013337;28;20222;-60
2022/03/07 03:05:21;;;;;;;13.70;9.00;;;0.60;99.90;;;;;;5013241;28;20260;-59
2022/03/07 03:07:47;;;;;;;11.50;8.83;;;0.60;99.90;;;;;;5013229;28;20569;-59
2022/03/07 03:10:14;;;;;;;9.87;8.50;;;0.50;99.90;;;;;;5012964;28;20199;-59
2022/03/07 03:12:39;;;;;;;14.57;9.00;;;0.60;99.90;;;;;;5013337;28;20171;-59
2022/03/07 03:15:06;;;;;;;11.70;8.50;;;0.50;99.90;;;;;;5013296;28;20552;-59
2022/03/07 03:17:31;;;;;;;11.70;8.80;;;0.40;99.90;;;;;;5013206;28;20176;-59
2022/03/07 03:19:57;;;;;;;12.77;8.60;;;0.40;99.90;;;;;;5013130;28;20261;-59
2022/03/07 03:22:23;;;;;;;10.50;8.37;;;0.40;99.90;;;;;;5012955;28;20387;-59
2022/03/07 03:24:50;;;;;;;11.40;8.93;;;0.40;99.90;;;;;;5013260;28;20211;-59
2022/03/07 03:27:16;;;;;;;10.13;8.67;;;0.30;99.90;;;;;;5013090;28;20224;-59
2022/03/07 03:29:42;;;;;;;10.80;8.63;;;0.30;99.90;;;;;;5013089;28;20256;-59
2022/03/07 03:32:07;;;;;;;10.37;8.43;;;0.30;99.90;;;;;;5013120;28;20181;-59
2022/03/07 03:34:33;;;;;;;10.70;8.13;;;0.40;99.90;;;;;;5012981;28;20697;-60
2022/03/07 03:36:59;;;;;;;10.27;8.60;;;0.40;99.90;;;;;;5012910;28;20687;-60
2022/03/07 03:39:25;;;;;;;8.97;8.00;;;0.40;99.90;;;;;;5012703;28;20192;-59
2022/03/07 03:41:50;;;;;;;10.10;8.20;;;0.40;99.90;;;;;;5012840;28;20263;-59
2022/03/07 03:44:16;;;;;;;11.63;8.50;;;0.40;99.90;;;;;;5014713;28;20186;-60
2022/03/07 03:46:42;;;;;;;9.73;8.73;;;0.20;99.90;;;;;;5016523;28;20627;-59
2022/03/07 03:49:08;;;;;;;10.97;8.57;;;0.20;99.90;;;;;;5016519;28;20546;-59
2022/03/07 03:51:36;;;;;;;10.10;8.30;;;0.20;99.90;;;;;;5016295;28;20178;-59
2022/03/07 03:54:03;;;;;;;13.37;8.40;;;0.20;99.90;;;;;;5016574;28;20312;-60
2022/03/07 03:56:28;;;;;;;11.37;9.13;;;0.20;99.90;;;;;;5016774;28;20649;-60
2022/03/07 03:58:54;;;;;;;10.70;8.70;;;0.20;99.90;;;;;;5015361;28;20183;-59
2022/03/07 04:01:20;;;;;;;12.97;8.97;;;0.20;99.90;;;;;;5015202;28;20187;-59
2022/03/07 04:03:45;;;;;;;10.47;8.90;;;0.30;99.90;;;;;;5016224;28;20187;-59
2022/03/07 04:06:11;;;;;;;9.10;8.20;;;0.20;99.90;;;;;;5016065;28;20187;-59
2022/03/07 04:08:50;;;;;;;10.37;8.30;;;0.20;99.90;;;;;;5015046;28;20213;-59
2022/03/07 04:11:16;;;;;;;10.77;8.63;;;0.20;99.90;;;;;;5016002;28;20243;-59
2022/03/07 04:13:42;;;;;;;12.33;8.60;;;0.20;99.90;;;;;;5015945;28;20177;-59
2022/03/07 04:16:07;;;;;;;10.93;8.73;;;0.20;99.90;;;;;;5016003;28;20183;-59
2022/03/07 04:18:34;;;;;;;12.13;9.23;;;0.20;99.90;;;;;;5015921;28;20183;-59
2022/03/07 04:20:59;;;;;;;12.07;9.00;;;0.10;99.90;;;;;;4998554;28;20194;-60
2022/03/07 04:23:25;;;;;;;10.43;8.87;;;0.10;99.90;;;;;;5015992;28;20181;-59
2022/03/07 04:25:51;;;;;;;13.63;9.23;;;0.10;99.90;;;;;;5015942;28;20253;-59
2022/03/07 04:28:16;;;;;;;11.80;9.47;;;0.10;99.90;;;;;;5015701;28;20227;-59
2022/03/07 04:30:42;;;;;;;10.93;8.70;;;0.10;99.90;;;;;;5015792;28;20187;-60
2022/03/07 04:33:09;;;;;;;10.60;8.50;;;0.10;99.90;;;;;;5015630;28;20188;-60
2022/03/07 04:35:36;;;;;;;13.80;9.63;;;0.00;99.90;;;;;;5015420;28;20574;-59
2022/03/07 04:38:01;;;;;;;12.97;9.57;;;0.10;99.90;;;;;;5015611;28;20268;-59
2022/03/07 04:40:28;;;;;;;13.93;9.70;;;0.00;99.90;;;;;;5015372;28;20589;-60
2022/03/07 04:42:57;;;;;;;11.63;9.60;;;0.00;99.90;;;;;;5015348;28;20188;-59
2022/03/07 04:45:23;;;;;;;12.33;8.90;;;0.00;99.90;;;;;;5015421;28;20230;-59
2022/03/07 04:47:49;;;;;;;16.47;9.50;;;0.00;99.90;;;;;;5014982;28;20209;-59
2022/03/07 04:50:15;;;;;;;10.93;9.33;;;0.00;99.90;;;;;;5015377;28;20183;-59
2022/03/07 04:52:42;;;;;;;13.57;9.27;;;0.00;99.90;;;;;;5015395;28;20199;-59
2022/03/07 04:55:10;;;;;;;13.73;9.90;;;0.00;99.90;;;;;;5014638;28;20187;-59
2022/03/07 04:57:36;;;;;;;13.60;10.23;;;0.00;99.90;;;;;;5015354;28;20348;-59
2022/03/07 05:00:04;;;;;;;14.17;9.50;;;0.00;99.90;;;;;;5015188;28;20583;-59
2022/03/07 05:02:29;;;;;;;11.07;9.20;;;0.00;99.90;;;;;;5013681;28;20215;-59
2022/03/07 05:04:55;;;;;;;12.80;9.53;;;-0.10;99.90;;;;;;5015268;28;20208;-59
2022/03/07 05:07:21;;;;;;;12.47;9.87;;;-0.10;99.90;;;;;;5013573;28;20678;-59
2022/03/07 05:09:47;;;;;;;13.63;9.53;;;0.00;99.90;;;;;;5013635;28;20269;-59
2022/03/07 05:12:12;;;;;;;14.03;9.47;;;0.00;99.90;;;;;;5014995;28;20223;-59
2022/03/07 05:14:38;;;;;;;12.70;9.47;;;-0.10;99.90;;;;;;5015036;28;20202;-59
2022/03/07 05:17:04;;;;;;;10.77;9.53;;;-0.10;99.90;;;;;;5014798;28;20264;-59
2022/03/07 05:19:29;;;;;;;12.13;9.50;;;0.00;99.90;;;;;;5014916;28;20188;-60
2022/03/07 05:21:55;;;;;;;11.13;9.27;;;-0.10;99.90;;;;;;5014945;28;20257;-59
2022/03/07 05:24:21;;;;;;;13.20;9.60;;;-0.20;99.90;;;;;;5013740;28;20173;-59
2022/03/07 05:26:46;;;;;;;10.93;9.27;;;-0.20;99.90;;;;;;5014603;28;20173;-59
2022/03/07 05:29:12;;;;;;;14.80;10.47;;;-0.20;99.90;;;;;;5014619;28;20223;-59
2022/03/07 05:31:38;;;;;;;15.07;9.50;;;-0.10;99.90;;;;;;5014446;28;20177;-59
2022/03/07 05:34:03;;;;;;;14.07;10.43;;;-0.10;99.90;;;;;;5014741;28;20177;-59
2022/03/07 05:36:29;;;;;;;12.33;9.90;;;-0.20;99.90;;;;;;5014665;28;20207;-60
2022/03/07 05:38:54;;;;;;;15.40;9.73;;;-0.20;99.90;;;;;;5014931;28;20288;-59
2022/03/07 05:41:20;;;;;;;13.20;9.80;;;-0.10;99.90;;;;;;5014505;28;20204;-59
2022/03/07 05:43:46;;;;;;;13.07;9.70;;;0.00;99.90;;;;;;5013216;28;20220;-59
2022/03/07 05:46:11;;;;;;;12.60;9.93;;;-0.10;99.90;;;;;;5014194;28;20176;-59
2022/03/07 05:48:37;;;;;;;14.60;9.30;;;-0.20;99.90;;;;;;5014415;28;20563;-59
2022/03/07 05:51:03;;;;;;;13.47;10.23;;;-0.20;99.90;;;;;;5014354;28;20180;-59
2022/03/07 05:53:28;;;;;;;13.67;10.33;;;-0.20;99.90;;;;;;5014336;28;20190;-59
2022/03/07 05:55:54;;;;;;;12.97;9.20;;;-0.20;99.90;;;;;;5014256;28;20181;-59
2022/03/07 05:58:20;;;;;;;13.30;10.53;;;-0.20;99.90;;;;;;5013049;28;20185;-59
2022/03/07 06:00:45;;;;;;;14.43;10.40;;;-0.20;99.90;;;;;;5014014;28;20188;-60
2022/03/07 06:03:11;;;;;;;12.27;10.00;;;-0.20;99.90;;;;;;5014007;28;20191;-60
2022/03/07 06:05:40;;;;;;;12.30;10.20;;;-0.20;99.90;;;;;;5013116;28;20185;-60
2022/03/07 06:08:06;;;;;;;14.10;10.47;;;-0.20;99.90;;;;;;5012024;28;20208;-60
2022/03/07 06:10:32;;;;;;;15.17;10.57;;;-0.20;99.90;;;;;;5013778;28;20197;-60
2022/03/07 06:12:58;;;;;;;14.03;9.73;;;-0.20;99.90;;;;;;5012788;28;20178;-60
2022/03/07 06:15:24;;;;;;;12.20;10.43;;;-0.30;99.90;;;;;;5013718;28;20228;-60
2022/03/07 06:17:55;;;;;;;13.97;10.90;;;-0.30;99.90;;;;;;5012702;28;20677;-60
2022/03/07 06:20:22;;;;;;;14.53;10.27;;;-0.20;99.90;;;;;;5012530;28;20177;-60
2022/03/07 06:22:48;;;;;;;12.63;10.17;;;-0.20;99.90;;;;;;5013905;28;20677;-60
2022/03/07 06:25:15;;;;;;;14.77;10.80;;;-0.30;99.90;;;;;;5013780;28;20181;-60
2022/03/07 06:27:40;;;;;;;15.30;11.10;;;-0.30;99.90;;;;;;5013536;28;20562;-60
2022/03/07 06:30:08;;;;;;;14.20;11.40;;;-0.40;99.90;;;;;;5013817;28;20185;-60
2022/03/07 06:32:38;;;;;;;14.27;11.10;;;-0.30;99.90;;;;;;5013833;28;20188;-60
2022/03/07 06:35:05;;;;;;;13.70;11.27;;;-0.30;99.90;;;;;;5013634;28;20728;-60
2022/03/07 06:37:31;;;;;;;16.50;10.90;;;-0.20;99.90;;;;;;5013613;28;20271;-60
2022/03/07 06:39:57;;;;;;;16.33;11.37;;;-0.30;99.90;;;;;;5013839;28;20188;-60
2022/03/07 06:42:23;;;;;;;14.13;11.07;;;-0.20;99.90;;;;;;5012205;28;20181;-60
2022/03/07 06:44:48;;;;;;;14.83;10.73;;;-0.20;99.90;;;;;;5013603;28;20535;-60
2022/03/07 06:47:16;;;;;;;14.73;10.83;;;-0.10;99.90;;;;;;5013537;28;20581;-60
2022/03/07 06:49:42;;;;;;;13.30;11.47;;;-0.10;99.90;;;;;;5013443;28;20699;-60
2022/03/07 06:52:08;;;;;;;14.20;11.17;;;0.00;99.90;;;;;;5013377;28;20191;-60
2022/03/07 06:54:34;;;;;;;15.07;11.60;;;0.10;99.90;;;;;;5013372;28;20283;-60
2022/03/07 06:56:59;;;;;;;15.23;11.50;;;0.10;99.90;;;;;;5013275;28;20195;-60
2022/03/07 06:59:25;;;;;;;15.63;12.17;;;0.20;99.90;;;;;;5013673;28;20181;-60
2022/03/07 07:01:51;;;;;;;15.07;11.90;;;0.30;99.90;;;;;;5013228;28;20175;-60
2022/03/07 07:04:17;;;;;;;13.33;10.90;;;0.20;99.90;;;;;;5013409;28;20189;-60
2022/03/07 07:06:43;;;;;;;16.83;11.50;;;0.40;99.90;;;;;;5013303;28;20192;-60
2022/03/07 07:09:09;;;;;;;15.30;11.73;;;0.40;99.90;;;;;;5013097;28;20250;-60
2022/03/07 07:11:35;;;;;;;14.87;11.17;;;0.60;99.90;;;;;;5013490;28;20188;-61
2022/03/07 07:14:01;;;;;;;17.60;10.93;;;0.70;99.90;;;;;;5012163;28;20214;-60
2022/03/07 07:16:27;;;;;;;16.07;11.00;;;0.70;99.90;;;;;;5012201;28;20649;-60
2022/03/07 07:18:53;;;;;;;14.10;10.37;;;0.90;99.90;;;;;;5015743;28;20223;-60
2022/03/07 07:21:18;;;;;;;10.77;9.37;;;1.00;99.90;;;;;;5016060;28;20177;-60
2022/03/07 07:23:44;;;;;;;12.70;10.20;;;1.10;99.90;;;;;;5016931;28;20187;-60
2022/03/07 07:26:10;;;;;;;14.10;9.87;;;1.00;99.90;;;;;;5016755;28;20222;-60
2022/03/07 07:28:37;;;;;;;14.43;10.30;;;1.20;99.90;;;;;;5016920;28;20681;-60
2022/03/07 07:31:03;;;;;;;13.17;9.30;;;1.20;99.90;;;;;;5017076;28;20259;-60
2022/03/07 07:33:29;;;;;;;10.03;8.83;;;1.40;99.90;;;;;;5016912;28;20191;-60
2022/03/07 07:35:56;;;;;;;16.23;9.97;;;1.50;99.90;;;;;;5016761;28;20178;-60
2022/03/07 07:38:22;;;;;;;9.73;8.73;;;1.60;99.90;;;;;;5016797;28;20183;-60
2022/03/07 07:40:49;;;;;;;10.93;8.93;;;1.70;99.90;;;;;;5016655;28;20191;-60
2022/03/07 07:43:16;;;;;;;10.87;9.10;;;1.90;99.90;;;;;;5016638;28;20176;-60
2022/03/07 07:45:42;;;;;;;11.70;8.40;;;2.00;99.90;;;;;;5017001;28;20557;-59
2022/03/07 07:48:07;;;;;;;10.83;8.40;;;2.20;99.90;;;;;;5016543;28;20208;-60
2022/03/07 07:50:33;;;;;;;9.10;8.10;;;2.20;99.90;;;;;;5016552;28;20183;-60
2022/03/07 07:52:59;;;;;;;8.57;7.70;;;2.10;99.90;;;;;;5016735;28;20176;-60
2022/03/07 07:55:25;;;;;;;9.30;8.17;;;2.30;99.90;;;;;;5016218;28;20190;-60
2022/03/07 07:57:51;;;;;;;13.80;8.30;;;2.40;99.90;;;;;;5015311;28;20192;-60
2022/03/07 08:00:19;;;;;;;11.03;8.70;;;2.30;99.90;;;;;;5016644;28;20267;-60
2022/03/07 08:02:49;;;;;;;11.70;8.00;;;2.40;99.90;;;;;;5016362;28;20204;-60
2022/03/07 08:05:19;;;;;;;9.30;8.30;;;2.30;99.90;;;;;;5016143;28;20278;-60
2022/03/07 08:07:45;;;;;;;10.40;8.13;;;2.40;99.90;;;;;;5016005;28;20232;-60
2022/03/07 08:10:13;;;;;;;10.30;8.60;;;2.40;99.90;;;;;;5015922;28;20218;-60
2022/03/07 08:12:39;;;;;;;10.50;8.70;;;2.50;99.90;;;;;;5016161;28;20173;-60
2022/03/07 08:15:06;;;;;;;11.40;8.67;;;2.40;99.90;;;;;;5016112;28;20177;-60
2022/03/07 08:17:32;;;;;;;11.87;9.33;;;2.60;99.90;;;;;;5016090;28;20173;-60
2022/03/07 08:19:58;;;;;;;12.77;9.27;;;2.80;99.90;;;;;;5015933;28;20177;-60
2022/03/07 08:22:24;;;;;;;10.27;9.00;;;2.80;99.90;;;;;;5015749;28;20537;-60
2022/03/07 08:24:49;;;;;;;10.47;8.37;;;2.90;99.90;;;;;;5015955;28;20181;-60
2022/03/07 08:27:15;;;;;;;10.00;8.93;;;2.90;99.90;;;;;;5015862;28;20204;-60
2022/03/07 08:29:40;;;;;;;10.00;8.93;;;2.90;99.90;;;;;;5014686;28;20187;-60
2022/03/07 08:32:06;;;;;;;13.07;9.63;;;2.90;99.90;;;;;;5015748;28;20176;-60
2022/03/07 08:34:32;;;;;;;10.10;7.90;;;3.00;99.90;;;;;;5014205;28;20192;-60
2022/03/07 08:36:58;;;;;;;14.90;9.77;;;3.00;99.90;;;;;;5015453;28;20503;-60
2022/03/07 08:39:24;;;;;;;14.07;9.97;;;3.10;99.90;;;;;;5014511;28;20238;-60
2022/03/07 08:41:49;;;;;;;13.00;10.03;;;3.30;99.90;;;;;;5015588;28;20214;-60
2022/03/07 08:44:15;;;;;;;15.60;10.90;;;3.40;99.90;;;;;;5015612;28;20233;-60
2022/03/07 08:46:41;;;;;;;14.50;9.80;;;3.50;99.90;;;;;;5015728;28;20186;-60
2022/03/07 08:49:10;;;;;;;8.23;7.30;;;3.40;99.90;;;;;;5015414;28;20634;-60
2022/03/07 08:51:37;;;;;;;11.03;7.10;;;3.40;99.90;;;;;;5015239;28;20190;-60
2022/03/07 08:54:03;;;;;;;10.30;6.97;;;3.30;99.90;;;;;;5015506;28;20216;-60
2022/03/07 08:56:28;;;;;;;8.47;6.60;;;3.40;99.90;;;;;;5015234;28;20270;-60
2022/03/07 08:58:54;;;;;;;7.80;7.10;;;3.60;99.90;;;;;;5015293;28;20187;-60
2022/03/07 09:01:20;;;;;;;8.07;6.70;;;3.60;99.90;;;;;;5015215;28;20176;-60
2022/03/07 09:03:46;;;;;;;7.47;6.10;;;3.70;99.90;;;;;;5015119;28;20330;-60
2022/03/07 09:06:12;;;;;;;6.90;6.20;;;3.60;99.90;;;;;;5015052;28;20203;-60
2022/03/07 09:08:37;;;;;;;6.97;5.87;;;3.60;99.90;;;;;;5014864;28;20657;-60
2022/03/07 09:11:03;;;;;;;9.20;6.70;;;3.70;99.90;;;;;;5014924;28;20195;-60
2022/03/07 09:13:29;;;;;;;6.47;5.77;;;3.70;99.90;;;;;;5013824;28;20191;-59
2022/03/07 09:15:55;;;;;;;6.53;5.60;;;3.80;99.90;;;;;;5014944;28;20534;-60
2022/03/07 09:18:22;;;;;;;6.87;5.80;;;3.90;99.90;;;;;;5014974;28;20235;-60
2022/03/07 09:20:48;;;;;;;6.30;5.70;;;4.00;99.90;;;;;;5014861;28;20633;-60
2022/03/07 09:23:13;;;;;;;6.97;5.27;;;4.10;99.90;;;;;;5014945;28;20215;-60
2022/03/07 09:25:39;;;;;;;5.90;5.33;;;3.90;99.90;;;;;;5014848;28;20177;-60
2022/03/07 09:28:05;;;;;;;8.67;6.20;;;3.90;99.90;;;;;;5014813;28;20734;-60
2022/03/07 09:30:34;;;;;;;6.20;5.30;;;4.00;99.90;;;;;;5014582;28;20595;-60
2022/03/07 09:33:03;;;;;;;6.63;5.80;;;4.30;99.90;;;;;;5014630;28;20187;-60
2022/03/07 09:35:33;;;;;;;6.83;5.20;;;4.30;99.90;;;;;;5014652;28;20246;-60
2022/03/07 09:37:59;;;;;;;5.47;4.60;;;4.20;99.40;;;;;;5014738;28;20645;-60
2022/03/07 09:40:25;;;;;;;6.00;5.33;;;4.30;99.60;;;;;;5014004;28;20199;-60
2022/03/07 09:42:52;;;;;;;5.70;5.10;;;4.40;99.60;;;;;;5014469;28;20177;-60
2022/03/07 09:45:21;;;;;;;6.10;4.87;;;4.40;98.30;;;;;;5014495;28;20202;-60
2022/03/07 09:47:49;;;;;;;5.37;4.77;;;4.10;98.60;;;;;;5014153;28;20669;-60
2022/03/07 09:50:15;;;;;;;5.83;5.03;;;4.10;99.70;;;;;;5014688;28;20180;-60
2022/03/07 09:52:44;;;;;;;6.30;5.70;;;4.10;99.20;;;;;;5014333;28;20182;-63
2022/03/07 09:55:14;;;;;;;6.70;5.67;;;4.20;99.80;;;;;;5014280;28;20176;-60
2022/03/07 09:57:41;;;;;;;6.37;5.47;;;4.30;99.80;;;;;;5014325;28;20175;-60
2022/03/07 10:00:08;;;;;;;5.83;5.30;;;4.30;98.50;;;;;;5014163;28;20178;-60
2022/03/07 10:02:34;;;;;;;5.63;4.97;;;4.40;99.20;;;;;;5014341;28;20180;-59
2022/03/07 10:05:03;;;;;;;8.47;5.40;;;4.50;99.70;;;;;;5014199;28;20183;-60
2022/03/07 10:07:29;;;;;;;5.33;4.87;;;4.50;99.30;;;;;;5013943;28;20208;-59
2022/03/07 10:10:07;;;;;;;6.63;5.00;;;4.50;98.10;;;;;;5013708;28;20274;-60
2022/03/07 10:12:33;;;;;;;5.70;4.30;;;4.50;98.70;;;;;;5013913;28;20580;-60
2022/03/07 10:15:10;;;;;;;6.23;4.50;;;4.60;98.70;;;;;;5013889;28;20172;-60
2022/03/07 10:17:49;;;;;;;4.57;4.07;;;4.70;98.60;;;;;;5014194;28;20267;-60
2022/03/07 10:20:19;;;;;;;4.80;4.07;;;4.80;98.40;;;;;;5014119;28;20659;-59
2022/03/07 10:22:50;;;;;;;4.63;4.20;;;4.60;97.40;;;;;;5013947;28;20544;-59
2022/03/07 10:25:17;;;;;;;5.07;4.13;;;4.40;97.80;;;;;;5013715;28;20242;-61
2022/03/07 10:27:45;;;;;;;4.30;3.90;;;4.60;98.10;;;;;;5013878;28;20220;-61
2022/03/07 10:30:17;;;;;;;4.57;4.17;;;4.70;98.10;;;;;;5014228;28;20172;-58
2022/03/07 10:32:50;;;;;;;4.80;4.23;;;4.70;97.70;;;;;;5013677;28;20648;-59
2022/03/07 10:35:48;;;;;;;6.43;4.30;;;4.60;98.20;;;;;;5013840;28;20172;-58
2022/03/07 10:38:17;;;;;;;4.40;4.00;;;4.80;98.20;;;;;;5013843;28;20182;-58
2022/03/07 10:40:52;;;;;;;5.17;4.33;;;4.90;97.10;;;;;;5013967;28;20672;-58
2022/03/07 10:43:18;;;;;;;5.00;4.50;;;5.00;95.90;;;;;;5013613;28;20179;-58
2022/03/07 10:45:51;;;;;;;5.07;4.50;;;5.00;96.40;;;;;;5013505;28;20271;-61
2022/03/07 10:48:17;;;;;;;5.27;4.10;;;4.90;97.50;;;;;;5013372;28;20557;-61
2022/03/07 10:50:51;;;;;;;5.57;4.30;;;5.10;97.80;;;;;;5012527;28;20204;-60
2022/03/07 10:53:18;;;;;;;6.57;4.77;;;5.20;98.00;;;;;;5012762;28;20605;-60
2022/03/07 10:55:55;;;;;;;5.83;4.47;;;5.40;97.30;;;;;;5013380;28;20624;-60
2022/03/07 10:58:21;;;;;;;4.82;4.38;;;5.50;96.10;;;;;;5013353;28;20184;-60
2022/03/07 11:00:56;;;;;;;5.97;4.43;;;5.50;96.70;;;;;;5013362;28;20191;-60
2022/03/07 11:03:29;;;;;;;6.47;4.85;;;5.50;96.20;;;;;;5013434;28;20186;-60
2022/03/07 11:05:56;;;;;;;5.00;4.50;;;5.50;94.40;;;;;;5013336;28;20183;-60
2022/03/07 11:08:22;;;;;;;5.60;4.27;;;5.30;94.00;;;;;;5013225;28;20238;-60
2022/03/07 11:10:53;;;;;;;6.40;4.53;;;5.40;95.60;;;;;;5013287;28;20335;-60
2022/03/07 11:13:20;;;;;;;5.60;5.00;;;5.30;95.60;;;;;;4995651;28;20192;-62
2022/03/07 11:15:47;;;;;;;5.60;4.97;;;5.50;95.60;;;;;;5013336;28;20181;-60
2022/03/07 11:18:15;;;;;;;5.13;4.70;;;5.60;94.20;;;;;;5013256;28;20194;-60
2022/03/07 11:20:45;;;;;;;5.10;4.70;;;5.60;95.30;;;;;;5013233;28;20637;-60
2022/03/07 11:23:12;;;;;;;5.53;5.00;;;5.60;95.50;;;;;;5013380;28;20537;-60
2022/03/07 11:25:41;;;;;;;6.20;4.90;;;5.70;96.00;;;;;;5013127;28;20172;-61
2022/03/07 11:28:08;;;;;;;5.25;4.70;;;5.80;95.30;;;;;;5013147;28;20216;-60
2022/03/07 11:30:36;;;;;;;6.80;4.63;;;5.90;93.50;;;;;;5013312;28;20557;-60
2022/03/07 11:33:12;;;;;;;6.17;4.83;;;5.80;93.00;;;;;;5013132;28;20172;-60
2022/03/07 11:35:56;;;;;;;4.60;3.92;;;5.90;94.10;;;;;;5013125;28;20262;-60
2022/03/07 11:38:24;;;;;;;4.82;4.32;;;5.90;93.00;;;;;;5013049;28;20188;-60
2022/03/07 11:40:59;;;;;;;8.60;5.07;;;5.90;94.20;;;;;;5013099;28;20254;-61
2022/03/07 11:43:26;;;;;;;5.00;4.18;;;5.90;92.60;;;;;;5013233;28;20540;-60
2022/03/07 11:45:53;;;;;;;7.63;4.40;;;6.00;94.40;;;;;;5013130;28;20186;-59
2022/03/07 11:48:20;;;;;;;5.78;5.18;;;5.90;93.40;;;;;;5012811;28;20266;-59
2022/03/07 11:50:46;;;;;;;4.70;4.20;;;5.90;94.40;;;;;;5013009;28;20207;-59
2022/03/07 11:53:14;;;;;;;5.22;4.15;;;6.00;91.50;;;;;;5013255;28;20204;-59
2022/03/07 11:55:45;;;;;;;6.43;4.22;;;6.10;93.50;;;;;;5013149;28;20171;-59
2022/03/07 11:58:10;;;;;;;4.90;4.40;;;6.20;92.00;;;;;;4995309;28;20184;-59
2022/03/07 12:00:37;;;;;;;7.43;4.18;;;6.10;91.50;;;;;;5012944;28;20231;-59
2022/03/07 12:03:18;;;;;;;5.22;4.20;;;6.10;93.00;;;;;;5012850;28;20180;-59
2022/03/07 12:05:44;;;;;;;4.95;4.38;;;6.20;91.80;;;;;;5016456;28;20176;-59
2022/03/07 12:08:14;;;;;;;4.65;4.13;;;6.30;91.40;;;;;;5015178;28;20242;-59
2022/03/07 12:10:52;;;;;;;4.85;4.45;;;6.30;90.20;;;;;;5016220;28;20191;-59
2022/03/07 12:13:18;;;;;;;4.72;4.32;;;6.60;89.00;;;;;;5016413;28;20167;-59
2022/03/07 12:15:50;;;;;;;4.30;3.90;;;6.50;90.80;;;;;;5016130;28;20186;-60
2022/03/07 12:18:17;;;;;;;5.28;3.85;;;6.70;92.00;;;;;;5016175;28;20179;-59
2022/03/07 12:20:58;;;;;;;5.80;4.30;;;6.80;87.70;;;;;;5016207;28;20200;-60
2022/03/07 12:23:26;;;;;;;4.72;4.32;;;6.60;90.20;;;;;;5016132;28;20187;-60
2022/03/07 12:26:00;;;;;;;4.70;4.20;;;6.40;88.30;;;;;;5015910;28;20180;-60
2022/03/07 12:28:31;;;;;;;4.45;4.05;;;6.50;89.60;;;;;;5015907;28;20552;-60
2022/03/07 12:30:56;;;;;;;5.97;4.10;;;6.60;85.80;;;;;;5016036;28;20625;-60
2022/03/07 12:33:22;;;;;;;7.43;4.32;;;6.40;85.80;;;;;;5015793;28;20180;-59
2022/03/07 12:35:48;;;;;;;4.45;4.05;;;6.60;88.40;;;;;;5015667;28;20626;-60
2022/03/07 12:38:13;;;;;;;4.35;3.95;;;6.70;88.70;;;;;;5014441;28;20181;-60
2022/03/07 12:40:39;;;;;;;5.23;4.00;;;6.40;86.30;;;;;;5015443;28;20234;-60
2022/03/07 12:43:06;;;;;;;4.00;3.70;;;6.50;88.70;;;;;;5015506;28;20738;-60
2022/03/07 12:45:33;;;;;;;4.40;4.05;;;6.40;86.80;;;;;;5015590;28;20415;-60
2022/03/07 12:48:01;;;;;;;5.13;3.70;;;6.50;84.80;;;;;;5015437;28;20664;-59
2022/03/07 12:50:28;;;;;;;4.40;4.00;;;6.60;86.90;;;;;;5014214;28;20234;-60